sensor_id;sensor_type;location;lat;lon;timestamp;temperature;humidity
59847;DHT22;45728;48.788;2.302;2023-04-10T00:02:23;11.90;99.90
59847;DHT22;45728;48.788;2.302;2023-04-10T00:04:49;11.90;99.90
59847;DHT22;45728;48.788;2.302;2023-04-10T00:07:15;11.70;99.90
59847;DHT22;45728;48.788;2.302;2023-04-10T00:09:41;11.70;99.90
59847;DHT22;45728;48.788;2.302;2023-04-10T00:12:07;11.60;99.90
59847;DHT22;45728;48.788;2.302;2023-04-10T00:14:36;11.60;99.90
59847;DHT22;45728;48.788;2.302;2023-04-10T00:17:02;11.50;99.90
59847;DHT22;45728;48.788;2.302;2023-04-10T00:19:28;11.50;99.90
59847;DHT22;45728;48.788;2.302;2023-04-10T00:21:55;11.60;99.90
59847;DHT22;45728;48.788;2.302;2023-04-10T00:24:21;11.60;99.90
59847;DHT22;45728;48.788;2.302;2023-04-10T00:26:47;11.50;99.90
59847;DHT22;45728;48.788;2.302;2023-04-10T00:29:13;11.50;99.90
59847;DHT22;45728;48.788;2.302;2023-04-10T00:31:40;11.50;99.90
59847;DHT22;45728;48.788;2.302;2023-04-10T00:34:06;11.50;99.90
59847;DHT22;45728;48.788;2.302;2023-04-10T00:36:32;11.50;99.90
59847;DHT22;45728;48.788;2.302;2023-04-10T00:38:58;11.60;99.90
59847;DHT22;45728;48.788;2.302;2023-04-10T00:41:24;11.60;99.90
59847;DHT22;45728;48.788;2.302;2023-04-10T00:43:55;11.70;99.90
59847;DHT22;45728;48.788;2.302;2023-04-10T00:46:22;11.70;99.90
59847;DHT22;45728;48.788;2.302;2023-04-10T00:48:50;11.80;99.90
59847;DHT22;45728;48.788;2.302;2023-04-10T00:51:17;11.80;99.90
59847;DHT22;45728;48.788;2.302;2023-04-10T00:53:47;11.70;99.90
59847;DHT22;45728;48.788;2.302;2023-04-10T00:56:18;11.70;99.90
59847;DHT22;45728;48.788;2.302;2023-04-10T00:58:46;11.70;99.90
59847;DHT22;45728;48.788;2.302;2023-04-10T01:01:12;11.80;99.90
59847;DHT22;45728;48.788;2.302;2023-04-10T01:03:38;11.80;99.90
59847;DHT22;45728;48.788;2.302;2023-04-10T01:11:53;11.70;99.90
59847;DHT22;45728;48.788;2.302;2023-04-10T01:22:36;11.70;99.90
59847;DHT22;45728;48.788;2.302;2023-04-10T01:25:26;11.70;99.90
59847;DHT22;45728;48.788;2.302;2023-04-10T01:30:49;11.60;99.90
59847;DHT22;45728;48.788;2.302;2023-04-10T01:33:19;11.50;99.90
59847;DHT22;45728;48.788;2.302;2023-04-10T01:35:52;11.40;99.90
59847;DHT22;45728;48.788;2.302;2023-04-10T01:38:20;11.40;99.90
59847;DHT22;45728;48.788;2.302;2023-04-10T01:40:52;11.40;99.90
59847;DHT22;45728;48.788;2.302;2023-04-10T01:43:19;11.40;99.90
59847;DHT22;45728;48.788;2.302;2023-04-10T01:45:48;11.40;99.90
59847;DHT22;45728;48.788;2.302;2023-04-10T01:48:16;11.40;99.90
59847;DHT22;45728;48.788;2.302;2023-04-10T01:50:45;11.40;99.90
59847;DHT22;45728;48.788;2.302;2023-04-10T01:53:12;11.40;99.90
59847;DHT22;45728;48.788;2.302;2023-04-10T01:55:38;11.40;99.90
59847;DHT22;45728;48.788;2.302;2023-04-10T01:58:06;11.50;99.90
59847;DHT22;45728;48.788;2.302;2023-04-10T02:00:39;11.60;99.90
59847;DHT22;45728;48.788;2.302;2023-04-10T02:03:09;11.60;99.90
59847;DHT22;45728;48.788;2.302;2023-04-10T02:05:51;11.60;99.90
59847;DHT22;45728;48.788;2.302;2023-04-10T02:08:25;11.60;99.90
59847;DHT22;45728;48.788;2.302;2023-04-10T02:11:03;11.60;99.90
59847;DHT22;45728;48.788;2.302;2023-04-10T02:13:33;11.70;99.90
59847;DHT22;45728;48.788;2.302;2023-04-10T02:16:03;11.60;99.90
59847;DHT22;45728;48.788;2.302;2023-04-10T02:18:33;11.60;99.90
59847;DHT22;45728;48.788;2.302;2023-04-10T02:21:00;11.60;99.90
59847;DHT22;45728;48.788;2.302;2023-04-10T02:23:27;11.50;99.90
59847;DHT22;45728;48.788;2.302;2023-04-10T02:25:53;11.50;99.90
59847;DHT22;45728;48.788;2.302;2023-04-10T02:28:21;11.60;99.90
59847;DHT22;45728;48.788;2.302;2023-04-10T02:30:47;11.60;99.90
59847;DHT22;45728;48.788;2.302;2023-04-10T02:33:13;11.60;99.90
59847;DHT22;45728;48.788;2.302;2023-04-10T02:35:40;11.60;99.90
59847;DHT22;45728;48.788;2.302;2023-04-10T02:38:06;11.70;99.90
59847;DHT22;45728;48.788;2.302;2023-04-10T02:40:33;11.70;99.90
59847;DHT22;45728;48.788;2.302;2023-04-10T02:42:59;11.60;99.90
59847;DHT22;45728;48.788;2.302;2023-04-10T02:45:26;11.60;99.90
59847;DHT22;45728;48.788;2.302;2023-04-10T02:47:52;11.60;99.90
59847;DHT22;45728;48.788;2.302;2023-04-10T02:50:18;11.70;99.90
59847;DHT22;45728;48.788;2.302;2023-04-10T02:52:44;11.60;99.90
59847;DHT22;45728;48.788;2.302;2023-04-10T02:55:10;11.60;99.90
59847;DHT22;45728;48.788;2.302;2023-04-10T02:57:36;11.50;99.90
59847;DHT22;45728;48.788;2.302;2023-04-10T03:00:03;11.50;99.90
59847;DHT22;45728;48.788;2.302;2023-04-10T03:02:30;11.50;99.90
59847;DHT22;45728;48.788;2.302;2023-04-10T03:04:56;11.50;99.90
59847;DHT22;45728;48.788;2.302;2023-04-10T03:07:22;11.40;99.90
59847;DHT22;45728;48.788;2.302;2023-04-10T03:09:48;11.50;99.90
59847;DHT22;45728;48.788;2.302;2023-04-10T03:12:15;11.50;99.90
59847;DHT22;45728;48.788;2.302;2023-04-10T03:14:41;11.40;99.90
59847;DHT22;45728;48.788;2.302;2023-04-10T03:17:07;11.40;99.90
59847;DHT22;45728;48.788;2.302;2023-04-10T03:19:33;11.40;99.90
59847;DHT22;45728;48.788;2.302;2023-04-10T03:21:59;11.30;99.90
59847;DHT22;45728;48.788;2.302;2023-04-10T03:24:26;11.20;99.90
59847;DHT22;45728;48.788;2.302;2023-04-10T03:26:52;11.10;99.90
59847;DHT22;45728;48.788;2.302;2023-04-10T03:29:18;11.10;99.90
59847;DHT22;45728;48.788;2.302;2023-04-10T03:31:44;11.10;99.90
59847;DHT22;45728;48.788;2.302;2023-04-10T03:34:10;11.00;99.90
59847;DHT22;45728;48.788;2.302;2023-04-10T03:36:36;11.00;99.90
59847;DHT22;45728;48.788;2.302;2023-04-10T03:39:03;11.00;99.90
59847;DHT22;45728;48.788;2.302;2023-04-10T03:41:29;11.00;99.90
59847;DHT22;45728;48.788;2.302;2023-04-10T03:43:55;11.00;99.90
59847;DHT22;45728;48.788;2.302;2023-04-10T03:46:21;11.00;99.90
59847;DHT22;45728;48.788;2.302;2023-04-10T03:48:47;11.00;99.90
59847;DHT22;45728;48.788;2.302;2023-04-10T03:51:15;11.00;99.90
59847;DHT22;45728;48.788;2.302;2023-04-10T03:53:41;11.00;99.90
59847;DHT22;45728;48.788;2.302;2023-04-10T03:56:07;10.90;99.90
59847;DHT22;45728;48.788;2.302;2023-04-10T03:58:34;10.80;99.90
59847;DHT22;45728;48.788;2.302;2023-04-10T04:01:00;10.90;99.90
59847;DHT22;45728;48.788;2.302;2023-04-10T04:03:26;10.90;99.90
59847;DHT22;45728;48.788;2.302;2023-04-10T04:05:52;10.90;99.90
59847;DHT22;45728;48.788;2.302;2023-04-10T04:08:18;10.90;99.90
59847;DHT22;45728;48.788;2.302;2023-04-10T04:10:44;10.90;99.90
59847;DHT22;45728;48.788;2.302;2023-04-10T04:13:10;10.90;99.90
59847;DHT22;45728;48.788;2.302;2023-04-10T04:15:36;10.90;99.90
59847;DHT22;45728;48.788;2.302;2023-04-10T04:18:02;10.90;99.90
59847;DHT22;45728;48.788;2.302;2023-04-10T04:20:28;10.90;99.90
59847;DHT22;45728;48.788;2.302;2023-04-10T04:22:54;10.90;99.90
59847;DHT22;45728;48.788;2.302;2023-04-10T04:25:21;10.80;99.90
59847;DHT22;45728;48.788;2.302;2023-04-10T04:27:47;10.80;99.90
59847;DHT22;45728;48.788;2.302;2023-04-10T04:30:13;10.70;99.90
59847;DHT22;45728;48.788;2.302;2023-04-10T04:32:39;10.70;99.90
59847;DHT22;45728;48.788;2.302;2023-04-10T04:35:05;10.70;99.90
59847;DHT22;45728;48.788;2.302;2023-04-10T04:37:32;10.70;99.90
59847;DHT22;45728;48.788;2.302;2023-04-10T04:39:58;10.70;99.90
59847;DHT22;45728;48.788;2.302;2023-04-10T04:42:24;10.70;99.90
59847;DHT22;45728;48.788;2.302;2023-04-10T04:44:50;10.70;99.90
59847;DHT22;45728;48.788;2.302;2023-04-10T04:47:16;10.70;99.90
59847;DHT22;45728;48.788;2.302;2023-04-10T04:49:42;10.80;99.90
59847;DHT22;45728;48.788;2.302;2023-04-10T04:52:08;10.80;99.90
59847;DHT22;45728;48.788;2.302;2023-04-10T04:54:34;10.80;99.90
59847;DHT22;45728;48.788;2.302;2023-04-10T04:57:00;10.80;99.90
59847;DHT22;45728;48.788;2.302;2023-04-10T04:59:26;10.80;99.90
59847;DHT22;45728;48.788;2.302;2023-04-10T05:01:52;10.80;99.90
59847;DHT22;45728;48.788;2.302;2023-04-10T05:04:18;10.80;99.90
59847;DHT22;45728;48.788;2.302;2023-04-10T05:06:45;10.70;99.90
59847;DHT22;45728;48.788;2.302;2023-04-10T05:09:11;10.60;99.90
59847;DHT22;45728;48.788;2.302;2023-04-10T05:11:37;10.70;99.90
59847;DHT22;45728;48.788;2.302;2023-04-10T05:14:04;10.70;99.90
59847;DHT22;45728;48.788;2.302;2023-04-10T05:16:30;10.70;99.90
59847;DHT22;45728;48.788;2.302;2023-04-10T05:18:57;10.70;99.90
59847;DHT22;45728;48.788;2.302;2023-04-10T05:21:23;10.70;99.90
59847;DHT22;45728;48.788;2.302;2023-04-10T05:23:49;10.80;99.90
59847;DHT22;45728;48.788;2.302;2023-04-10T05:26:15;10.70;99.90
59847;DHT22;45728;48.788;2.302;2023-04-10T05:28:41;10.70;99.90
59847;DHT22;45728;48.788;2.302;2023-04-10T05:31:07;10.70;99.90
59847;DHT22;45728;48.788;2.302;2023-04-10T05:33:33;10.60;99.90
59847;DHT22;45728;48.788;2.302;2023-04-10T05:36:00;10.60;99.90
59847;DHT22;45728;48.788;2.302;2023-04-10T05:38:26;10.60;99.90
59847;DHT22;45728;48.788;2.302;2023-04-10T05:40:53;10.60;99.90
59847;DHT22;45728;48.788;2.302;2023-04-10T05:43:19;10.60;99.90
59847;DHT22;45728;48.788;2.302;2023-04-10T05:45:46;10.60;99.90
59847;DHT22;45728;48.788;2.302;2023-04-10T05:48:12;10.50;99.90
59847;DHT22;45728;48.788;2.302;2023-04-10T05:50:38;10.50;99.90
59847;DHT22;45728;48.788;2.302;2023-04-10T05:53:04;10.60;99.90
59847;DHT22;45728;48.788;2.302;2023-04-10T05:55:30;10.60;99.90
59847;DHT22;45728;48.788;2.302;2023-04-10T05:57:57;10.60;99.90
59847;DHT22;45728;48.788;2.302;2023-04-10T06:00:23;10.60;99.90
59847;DHT22;45728;48.788;2.302;2023-04-10T06:02:49;10.60;99.90
59847;DHT22;45728;48.788;2.302;2023-04-10T06:05:15;10.60;99.90
59847;DHT22;45728;48.788;2.302;2023-04-10T06:07:41;10.60;99.90
59847;DHT22;45728;48.788;2.302;2023-04-10T06:10:09;10.70;99.90
59847;DHT22;45728;48.788;2.302;2023-04-10T06:12:35;10.70;99.90
59847;DHT22;45728;48.788;2.302;2023-04-10T06:15:01;10.80;99.90
59847;DHT22;45728;48.788;2.302;2023-04-10T06:17:27;10.80;99.90
59847;DHT22;45728;48.788;2.302;2023-04-10T06:19:53;10.80;99.90
59847;DHT22;45728;48.788;2.302;2023-04-10T06:22:21;10.80;99.90
59847;DHT22;45728;48.788;2.302;2023-04-10T06:24:47;10.80;99.90
59847;DHT22;45728;48.788;2.302;2023-04-10T06:27:13;10.90;99.90
59847;DHT22;45728;48.788;2.302;2023-04-10T06:29:39;11.00;99.90
59847;DHT22;45728;48.788;2.302;2023-04-10T06:32:05;11.10;99.90
59847;DHT22;45728;48.788;2.302;2023-04-10T06:34:31;11.10;99.90
59847;DHT22;45728;48.788;2.302;2023-04-10T06:36:57;11.00;99.90
59847;DHT22;45728;48.788;2.302;2023-04-10T06:39:23;11.20;99.90
59847;DHT22;45728;48.788;2.302;2023-04-10T06:41:50;11.20;99.90
59847;DHT22;45728;48.788;2.302;2023-04-10T06:44:16;11.20;99.90
59847;DHT22;45728;48.788;2.302;2023-04-10T06:46:42;11.40;99.90
59847;DHT22;45728;48.788;2.302;2023-04-10T06:49:08;11.40;99.90
59847;DHT22;45728;48.788;2.302;2023-04-10T06:51:34;11.40;99.90
59847;DHT22;45728;48.788;2.302;2023-04-10T06:54:00;11.50;99.90
59847;DHT22;45728;48.788;2.302;2023-04-10T06:56:26;11.60;99.90
59847;DHT22;45728;48.788;2.302;2023-04-10T06:58:52;11.60;99.90
59847;DHT22;45728;48.788;2.302;2023-04-10T07:01:18;11.50;99.90
59847;DHT22;45728;48.788;2.302;2023-04-10T07:03:44;11.60;99.90
59847;DHT22;45728;48.788;2.302;2023-04-10T07:06:11;11.60;99.90
59847;DHT22;45728;48.788;2.302;2023-04-10T07:08:37;11.60;99.90
59847;DHT22;45728;48.788;2.302;2023-04-10T07:11:03;11.60;99.90
59847;DHT22;45728;48.788;2.302;2023-04-10T07:13:29;11.70;99.90
59847;DHT22;45728;48.788;2.302;2023-04-10T07:15:55;11.70;99.90
59847;DHT22;45728;48.788;2.302;2023-04-10T07:18:21;11.80;99.90
59847;DHT22;45728;48.788;2.302;2023-04-10T07:20:47;11.80;99.90
59847;DHT22;45728;48.788;2.302;2023-04-10T07:23:14;11.90;99.90
59847;DHT22;45728;48.788;2.302;2023-04-10T07:25:41;11.90;99.90
59847;DHT22;45728;48.788;2.302;2023-04-10T07:28:07;12.00;99.90
59847;DHT22;45728;48.788;2.302;2023-04-10T07:30:33;12.10;99.90
59847;DHT22;45728;48.788;2.302;2023-04-10T07:32:59;12.10;99.90
59847;DHT22;45728;48.788;2.302;2023-04-10T07:35:25;12.20;99.90
59847;DHT22;45728;48.788;2.302;2023-04-10T07:37:51;12.20;99.90
59847;DHT22;45728;48.788;2.302;2023-04-10T07:40:19;12.20;99.90
59847;DHT22;45728;48.788;2.302;2023-04-10T07:42:45;12.30;99.90
59847;DHT22;45728;48.788;2.302;2023-04-10T07:45:12;12.40;99.90
59847;DHT22;45728;48.788;2.302;2023-04-10T07:47:57;12.50;99.90
59847;DHT22;45728;48.788;2.302;2023-04-10T07:50:24;12.50;99.90
59847;DHT22;45728;48.788;2.302;2023-04-10T07:52:50;12.60;99.90
59847;DHT22;45728;48.788;2.302;2023-04-10T07:55:16;12.70;99.90
59847;DHT22;45728;48.788;2.302;2023-04-10T07:57:42;12.60;99.90
59847;DHT22;45728;48.788;2.302;2023-04-10T08:00:08;12.80;99.90
59847;DHT22;45728;48.788;2.302;2023-04-10T08:02:35;12.80;99.90
59847;DHT22;45728;48.788;2.302;2023-04-10T08:05:01;12.80;99.90
59847;DHT22;45728;48.788;2.302;2023-04-10T08:07:27;13.00;99.90
59847;DHT22;45728;48.788;2.302;2023-04-10T08:09:53;13.20;99.90
59847;DHT22;45728;48.788;2.302;2023-04-10T08:12:19;13.30;99.90
59847;DHT22;45728;48.788;2.302;2023-04-10T08:14:45;13.40;99.90
59847;DHT22;45728;48.788;2.302;2023-04-10T08:17:11;13.30;99.90
59847;DHT22;45728;48.788;2.302;2023-04-10T08:19:40;13.30;99.90
59847;DHT22;45728;48.788;2.302;2023-04-10T08:22:06;13.30;99.90
59847;DHT22;45728;48.788;2.302;2023-04-10T08:24:33;13.40;99.90
59847;DHT22;45728;48.788;2.302;2023-04-10T08:26:59;13.50;99.90
59847;DHT22;45728;48.788;2.302;2023-04-10T08:29:25;13.60;99.90
59847;DHT22;45728;48.788;2.302;2023-04-10T08:31:52;13.60;99.90
59847;DHT22;45728;48.788;2.302;2023-04-10T08:34:19;13.70;99.90
59847;DHT22;45728;48.788;2.302;2023-04-10T08:36:46;13.70;99.90
59847;DHT22;45728;48.788;2.302;2023-04-10T08:39:12;13.70;99.90
59847;DHT22;45728;48.788;2.302;2023-04-10T08:41:39;13.80;99.90
59847;DHT22;45728;48.788;2.302;2023-04-10T08:44:06;13.80;99.90
59847;DHT22;45728;48.788;2.302;2023-04-10T08:46:35;13.80;99.90
59847;DHT22;45728;48.788;2.302;2023-04-10T08:49:03;13.80;99.90
59847;DHT22;45728;48.788;2.302;2023-04-10T08:51:42;13.70;99.90
59847;DHT22;45728;48.788;2.302;2023-04-10T08:54:13;13.80;99.90
59847;DHT22;45728;48.788;2.302;2023-04-10T08:56:47;14.00;99.90
59847;DHT22;45728;48.788;2.302;2023-04-10T08:59:14;14.10;99.90
59847;DHT22;45728;48.788;2.302;2023-04-10T09:01:40;14.10;99.90
59847;DHT22;45728;48.788;2.302;2023-04-10T09:04:07;14.20;99.90
59847;DHT22;45728;48.788;2.302;2023-04-10T09:06:33;14.20;99.90
59847;DHT22;45728;48.788;2.302;2023-04-10T09:08:59;14.20;99.90
59847;DHT22;45728;48.788;2.302;2023-04-10T09:14:27;14.40;99.90
59847;DHT22;45728;48.788;2.302;2023-04-10T09:19:38;14.30;99.90
59847;DHT22;45728;48.788;2.302;2023-04-10T09:22:04;14.20;99.90
59847;DHT22;45728;48.788;2.302;2023-04-10T09:24:35;14.30;99.90
59847;DHT22;45728;48.788;2.302;2023-04-10T09:27:02;14.40;99.90
59847;DHT22;45728;48.788;2.302;2023-04-10T09:29:45;14.50;99.90
59847;DHT22;45728;48.788;2.302;2023-04-10T09:32:41;14.60;99.90
59847;DHT22;45728;48.788;2.302;2023-04-10T09:35:08;14.70;99.90
59847;DHT22;45728;48.788;2.302;2023-04-10T09:37:36;14.80;99.90
59847;DHT22;45728;48.788;2.302;2023-04-10T09:40:03;14.90;99.90
59847;DHT22;45728;48.788;2.302;2023-04-10T09:42:36;14.90;99.90
59847;DHT22;45728;48.788;2.302;2023-04-10T09:45:03;14.90;99.90
59847;DHT22;45728;48.788;2.302;2023-04-10T09:47:30;15.00;99.90
59847;DHT22;45728;48.788;2.302;2023-04-10T09:49:58;15.10;99.90
59847;DHT22;45728;48.788;2.302;2023-04-10T09:52:28;15.10;99.90
59847;DHT22;45728;48.788;2.302;2023-04-10T09:55:02;15.20;99.90
59847;DHT22;45728;48.788;2.302;2023-04-10T09:57:31;15.10;99.90
59847;DHT22;45728;48.788;2.302;2023-04-10T10:00:00;15.20;99.90
59847;DHT22;45728;48.788;2.302;2023-04-10T10:02:28;15.30;99.90
59847;DHT22;45728;48.788;2.302;2023-04-10T10:04:56;15.20;99.90
59847;DHT22;45728;48.788;2.302;2023-04-10T10:07:25;15.30;99.90
59847;DHT22;45728;48.788;2.302;2023-04-10T10:09:52;15.30;99.90
59847;DHT22;45728;48.788;2.302;2023-04-10T10:12:23;15.20;99.90
59847;DHT22;45728;48.788;2.302;2023-04-10T10:15:10;15.30;99.90
59847;DHT22;45728;48.788;2.302;2023-04-10T10:17:45;15.20;99.90
59847;DHT22;45728;48.788;2.302;2023-04-10T10:20:17;15.30;99.90
59847;DHT22;45728;48.788;2.302;2023-04-10T10:22:45;15.20;99.90
59847;DHT22;45728;48.788;2.302;2023-04-10T10:25:12;15.10;99.90
59847;DHT22;45728;48.788;2.302;2023-04-10T10:27:39;15.20;99.90
59847;DHT22;45728;48.788;2.302;2023-04-10T10:30:08;15.20;99.90
59847;DHT22;45728;48.788;2.302;2023-04-10T10:32:34;15.30;99.90
59847;DHT22;45728;48.788;2.302;2023-04-10T10:35:01;15.30;99.90
59847;DHT22;45728;48.788;2.302;2023-04-10T10:37:28;15.30;99.90
59847;DHT22;45728;48.788;2.302;2023-04-10T10:45:33;15.40;99.90
59847;DHT22;45728;48.788;2.302;2023-04-10T10:48:01;15.50;99.90
59847;DHT22;45728;48.788;2.302;2023-04-10T10:50:49;15.50;99.90
59847;DHT22;45728;48.788;2.302;2023-04-10T10:53:31;15.70;99.90
59847;DHT22;45728;48.788;2.302;2023-04-10T10:55:58;15.80;99.90
59847;DHT22;45728;48.788;2.302;2023-04-10T11:01:13;15.90;99.90
59847;DHT22;45728;48.788;2.302;2023-04-10T11:03:39;15.90;99.90
59847;DHT22;45728;48.788;2.302;2023-04-10T11:06:07;15.80;99.90
59847;DHT22;45728;48.788;2.302;2023-04-10T11:08:48;16.00;99.90
59847;DHT22;45728;48.788;2.302;2023-04-10T11:11:26;16.10;99.90
59847;DHT22;45728;48.788;2.302;2023-04-10T11:16:44;16.30;99.90
59847;DHT22;45728;48.788;2.302;2023-04-10T11:19:10;16.50;99.90
59847;DHT22;45728;48.788;2.302;2023-04-10T11:22:04;16.40;99.90
59847;DHT22;45728;48.788;2.302;2023-04-10T11:24:54;16.30;99.90
59847;DHT22;45728;48.788;2.302;2023-04-10T11:27:41;16.20;99.90
59847;DHT22;45728;48.788;2.302;2023-04-10T11:30:25;16.30;99.90
59847;DHT22;45728;48.788;2.302;2023-04-10T11:32:55;16.30;99.90
59847;DHT22;45728;48.788;2.302;2023-04-10T11:35:21;16.40;99.90
59847;DHT22;45728;48.788;2.302;2023-04-10T11:37:47;16.30;99.90
59847;DHT22;45728;48.788;2.302;2023-04-10T11:40:13;16.30;99.90
59847;DHT22;45728;48.788;2.302;2023-04-10T11:42:39;16.40;99.90
59847;DHT22;45728;48.788;2.302;2023-04-10T11:45:26;16.40;99.90
59847;DHT22;45728;48.788;2.302;2023-04-10T11:47:53;16.40;99.90
59847;DHT22;45728;48.788;2.302;2023-04-10T11:50:20;16.50;99.90
59847;DHT22;45728;48.788;2.302;2023-04-10T11:52:49;16.40;99.90
59847;DHT22;45728;48.788;2.302;2023-04-10T11:55:15;16.40;99.90
59847;DHT22;45728;48.788;2.302;2023-04-10T11:57:43;16.30;99.90
59847;DHT22;45728;48.788;2.302;2023-04-10T12:00:10;16.40;99.90
59847;DHT22;45728;48.788;2.302;2023-04-10T12:02:49;16.40;99.90
59847;DHT22;45728;48.788;2.302;2023-04-10T12:05:16;16.20;99.90
59847;DHT22;45728;48.788;2.302;2023-04-10T12:07:42;16.20;99.90
59847;DHT22;45728;48.788;2.302;2023-04-10T12:10:09;16.20;99.90
59847;DHT22;45728;48.788;2.302;2023-04-10T12:12:35;16.30;99.90
59847;DHT22;45728;48.788;2.302;2023-04-10T12:15:02;16.20;99.90
59847;DHT22;45728;48.788;2.302;2023-04-10T12:17:28;16.10;99.90
59847;DHT22;45728;48.788;2.302;2023-04-10T12:19:56;16.10;99.90
59847;DHT22;45728;48.788;2.302;2023-04-10T12:22:23;16.10;99.90
59847;DHT22;45728;48.788;2.302;2023-04-10T12:24:51;16.20;99.90
59847;DHT22;45728;48.788;2.302;2023-04-10T12:27:19;16.20;99.90
59847;DHT22;45728;48.788;2.302;2023-04-10T12:29:47;16.20;99.90
59847;DHT22;45728;48.788;2.302;2023-04-10T12:32:13;16.30;99.90
59847;DHT22;45728;48.788;2.302;2023-04-10T12:34:40;16.20;99.90
59847;DHT22;45728;48.788;2.302;2023-04-10T12:37:07;16.20;99.90
59847;DHT22;45728;48.788;2.302;2023-04-10T12:39:34;16.10;99.90
59847;DHT22;45728;48.788;2.302;2023-04-10T12:42:11;16.10;99.90
59847;DHT22;45728;48.788;2.302;2023-04-10T12:44:55;16.10;99.90
59847;DHT22;45728;48.788;2.302;2023-04-10T12:47:22;16.10;99.90
59847;DHT22;45728;48.788;2.302;2023-04-10T12:50:10;16.20;99.90
59847;DHT22;45728;48.788;2.302;2023-04-10T12:52:38;16.20;99.90
59847;DHT22;45728;48.788;2.302;2023-04-10T12:55:14;16.20;99.90
59847;DHT22;45728;48.788;2.302;2023-04-10T12:57:45;16.30;99.90
59847;DHT22;45728;48.788;2.302;2023-04-10T13:00:18;16.30;99.90
59847;DHT22;45728;48.788;2.302;2023-04-10T13:02:45;16.50;99.90
59847;DHT22;45728;48.788;2.302;2023-04-10T13:05:13;16.60;99.90
59847;DHT22;45728;48.788;2.302;2023-04-10T13:07:39;16.70;99.90
59847;DHT22;45728;48.788;2.302;2023-04-10T13:10:06;16.90;99.90
59847;DHT22;45728;48.788;2.302;2023-04-10T13:12:33;16.90;99.90
59847;DHT22;45728;48.788;2.302;2023-04-10T13:15:01;16.90;99.90
59847;DHT22;45728;48.788;2.302;2023-04-10T13:17:27;16.90;99.90
59847;DHT22;45728;48.788;2.302;2023-04-10T13:19:53;16.90;99.90
59847;DHT22;45728;48.788;2.302;2023-04-10T13:22:19;17.10;99.90
59847;DHT22;45728;48.788;2.302;2023-04-10T13:24:46;17.00;99.90
59847;DHT22;45728;48.788;2.302;2023-04-10T13:27:12;17.10;99.90
59847;DHT22;45728;48.788;2.302;2023-04-10T13:29:40;17.20;99.90
59847;DHT22;45728;48.788;2.302;2023-04-10T13:32:06;17.20;99.90
59847;DHT22;45728;48.788;2.302;2023-04-10T13:34:32;17.20;99.90
59847;DHT22;45728;48.788;2.302;2023-04-10T13:36:59;17.30;99.90
59847;DHT22;45728;48.788;2.302;2023-04-10T13:39:29;17.50;99.90
59847;DHT22;45728;48.788;2.302;2023-04-10T13:41:56;17.60;99.90
59847;DHT22;45728;48.788;2.302;2023-04-10T13:44:22;17.50;99.90
59847;DHT22;45728;48.788;2.302;2023-04-10T13:46:48;17.50;99.90
59847;DHT22;45728;48.788;2.302;2023-04-10T13:49:16;17.60;99.90
59847;DHT22;45728;48.788;2.302;2023-04-10T13:51:44;17.70;99.90
59847;DHT22;45728;48.788;2.302;2023-04-10T13:54:11;17.60;99.90
59847;DHT22;45728;48.788;2.302;2023-04-10T13:56:37;17.50;99.90
59847;DHT22;45728;48.788;2.302;2023-04-10T13:59:04;17.60;99.90
59847;DHT22;45728;48.788;2.302;2023-04-10T14:01:30;17.60;99.90
59847;DHT22;45728;48.788;2.302;2023-04-10T14:03:56;17.80;99.90
59847;DHT22;45728;48.788;2.302;2023-04-10T14:06:22;17.80;99.90
59847;DHT22;45728;48.788;2.302;2023-04-10T14:08:48;17.70;99.90
59847;DHT22;45728;48.788;2.302;2023-04-10T14:11:14;17.70;99.90
59847;DHT22;45728;48.788;2.302;2023-04-10T14:13:41;17.50;99.90
59847;DHT22;45728;48.788;2.302;2023-04-10T14:16:07;17.30;99.90
59847;DHT22;45728;48.788;2.302;2023-04-10T14:18:34;17.10;99.90
59847;DHT22;45728;48.788;2.302;2023-04-10T14:21:00;17.10;99.90
59847;DHT22;45728;48.788;2.302;2023-04-10T14:23:26;17.20;99.90
59847;DHT22;45728;48.788;2.302;2023-04-10T14:25:52;17.10;99.90
59847;DHT22;45728;48.788;2.302;2023-04-10T14:28:19;17.00;99.90
59847;DHT22;45728;48.788;2.302;2023-04-10T14:30:49;17.10;99.90
59847;DHT22;45728;48.788;2.302;2023-04-10T14:33:16;17.00;99.90
59847;DHT22;45728;48.788;2.302;2023-04-10T14:35:44;17.00;99.90
59847;DHT22;45728;48.788;2.302;2023-04-10T14:38:10;17.00;99.90
59847;DHT22;45728;48.788;2.302;2023-04-10T14:40:37;16.80;99.90
59847;DHT22;45728;48.788;2.302;2023-04-10T14:43:05;16.90;99.90
59847;DHT22;45728;48.788;2.302;2023-04-10T14:45:32;16.70;99.90
59847;DHT22;45728;48.788;2.302;2023-04-10T14:47:58;16.70;99.90
59847;DHT22;45728;48.788;2.302;2023-04-10T14:50:24;16.40;99.90
59847;DHT22;45728;48.788;2.302;2023-04-10T14:52:51;16.60;99.90
59847;DHT22;45728;48.788;2.302;2023-04-10T14:55:17;16.30;99.90
59847;DHT22;45728;48.788;2.302;2023-04-10T14:57:43;16.30;99.90
59847;DHT22;45728;48.788;2.302;2023-04-10T15:00:09;16.20;99.90
59847;DHT22;45728;48.788;2.302;2023-04-10T15:02:36;16.00;99.90
59847;DHT22;45728;48.788;2.302;2023-04-10T15:05:03;15.90;99.90
59847;DHT22;45728;48.788;2.302;2023-04-10T15:07:29;15.80;99.90
59847;DHT22;45728;48.788;2.302;2023-04-10T15:09:58;15.90;99.90
59847;DHT22;45728;48.788;2.302;2023-04-10T15:12:24;15.90;99.90
59847;DHT22;45728;48.788;2.302;2023-04-10T15:14:51;15.90;99.90
59847;DHT22;45728;48.788;2.302;2023-04-10T15:17:19;15.80;99.90
59847;DHT22;45728;48.788;2.302;2023-04-10T15:19:45;15.70;99.90
59847;DHT22;45728;48.788;2.302;2023-04-10T15:22:11;15.70;99.90
59847;DHT22;45728;48.788;2.302;2023-04-10T15:24:37;15.80;99.90
59847;DHT22;45728;48.788;2.302;2023-04-10T15:27:04;15.60;99.90
59847;DHT22;45728;48.788;2.302;2023-04-10T15:29:35;15.50;99.90
59847;DHT22;45728;48.788;2.302;2023-04-10T15:32:02;15.50;99.90
59847;DHT22;45728;48.788;2.302;2023-04-10T15:34:28;15.50;99.90
59847;DHT22;45728;48.788;2.302;2023-04-10T15:36:54;15.50;99.90
59847;DHT22;45728;48.788;2.302;2023-04-10T15:39:20;15.60;99.90
59847;DHT22;45728;48.788;2.302;2023-04-10T15:41:46;15.70;99.90
59847;DHT22;45728;48.788;2.302;2023-04-10T15:44:15;15.70;99.90
59847;DHT22;45728;48.788;2.302;2023-04-10T15:46:42;15.70;99.90
59847;DHT22;45728;48.788;2.302;2023-04-10T15:49:08;15.70;99.90
59847;DHT22;45728;48.788;2.302;2023-04-10T15:51:34;15.50;99.90
59847;DHT22;45728;48.788;2.302;2023-04-10T15:54:00;15.60;99.90
59847;DHT22;45728;48.788;2.302;2023-04-10T15:56:31;15.60;99.90
59847;DHT22;45728;48.788;2.302;2023-04-10T15:58:57;15.60;99.90
59847;DHT22;45728;48.788;2.302;2023-04-10T16:01:23;15.60;99.90
59847;DHT22;45728;48.788;2.302;2023-04-10T16:03:49;15.60;99.90
59847;DHT22;45728;48.788;2.302;2023-04-10T16:06:16;15.60;99.90
59847;DHT22;45728;48.788;2.302;2023-04-10T16:08:42;15.60;99.90